Time;durP1;ratioP1;P1;durP2;ratioP2;P2;SDS_P1;SDS_P2;PMS_P1;PMS_P2;Temp;Humidity;BMP_temperature;BMP_pressure;BME280_temperature;BME280_humidity;BME280_pressure;Samples;Min_cycle;Max_cycle;Signal;HPM_P1;HPM_P2
2023/05/23 00:01:13;;;;;;;21.80;10.00;;;;;;;10.07;59.94;98983.20;104265;1276;97836;-77
2023/05/23 00:03:41;;;;;;;22.30;10.70;;;;;;;10.06;60.02;98979.80;104395;1282;109357;-77
2023/05/23 00:06:09;;;;;;;21.60;10.10;;;;;;;10.03;59.95;98977.64;104330;1275;97992;-78
2023/05/23 00:08:37;;;;;;;24.00;10.80;;;;;;;10.03;59.95;98976.80;104412;1274;107649;-76
2023/05/23 00:11:05;;;;;;;20.60;9.50;;;;;;;10.01;60.02;98978.36;104276;1276;98052;-78
2023/05/23 00:13:34;;;;;;;23.60;10.40;;;;;;;9.95;60.12;98976.83;104396;1276;97797;-76
2023/05/23 00:16:02;;;;;;;24.10;10.10;;;;;;;9.90;60.13;98973.48;104341;1276;111314;-77
2023/05/23 00:18:30;;;;;;;22.50;10.10;;;;;;;9.87;60.23;98973.34;104104;1276;99066;-76
2023/05/23 00:20:58;;;;;;;21.70;9.80;;;;;;;9.87;60.23;98970.14;104347;1276;107703;-76
2023/05/23 00:23:28;;;;;;;23.90;11.00;;;;;;;9.86;60.25;98968.45;104478;1276;97889;-77
2023/05/23 00:25:57;;;;;;;23.50;10.30;;;;;;;9.85;60.31;98962.63;105175;1276;98056;-77
2023/05/23 00:28:26;;;;;;;23.80;9.60;;;;;;;9.81;60.33;98963.77;103665;1280;111337;-77
2023/05/23 00:30:53;;;;;;;20.90;9.90;;;;;;;9.74;60.31;98962.73;103431;1279;98205;-77
2023/05/23 00:33:22;;;;;;;19.00;9.40;;;;;;;9.67;60.34;98961.62;103461;1280;109629;-77
2023/05/23 00:35:50;;;;;;;19.40;8.70;;;;;;;9.62;60.47;98961.80;103452;1282;97969;-77
2023/05/23 00:38:18;;;;;;;20.30;9.90;;;;;;;9.58;60.58;98961.19;103354;1280;97986;-76
2023/05/23 00:40:47;;;;;;;24.30;10.40;;;;;;;9.57;60.54;98955.95;103409;1289;111396;-76
2023/05/23 00:43:15;;;;;;;23.00;10.60;;;;;;;9.59;60.65;98955.60;103444;1286;97990;-77
2023/05/23 00:45:43;;;;;;;20.70;10.20;;;;;;;9.59;60.67;98955.80;103452;1277;107674;-77
2023/05/23 00:48:11;;;;;;;21.30;10.50;;;;;;;9.58;60.66;98956.77;103459;1289;98071;-76
2023/05/23 00:50:40;;;;;;;22.60;10.50;;;;;;;9.54;60.78;98956.15;103436;1280;98055;-77
2023/05/23 00:53:07;;;;;;;20.40;9.70;;;;;;;9.48;60.79;98954.45;103422;1280;111347;-77
2023/05/23 00:55:35;;;;;;;21.00;9.80;;;;;;;9.42;60.92;98958.23;103418;1279;98509;-76
2023/05/23 00:58:05;;;;;;;22.50;9.40;;;;;;;9.37;60.89;98951.44;103450;1279;108947;-76
2023/05/23 01:00:34;;;;;;;22.20;10.90;;;;;;;9.33;60.96;98954.73;103557;1279;97915;-77
2023/05/23 01:03:02;;;;;;;22.30;10.40;;;;;;;9.37;61.07;98958.52;103405;1283;99386;-76
2023/05/23 01:05:30;;;;;;;20.30;10.40;;;;;;;9.41;61.07;98962.31;103489;1279;111407;-75
2023/05/23 01:07:58;;;;;;;23.20;10.20;;;;;;;9.41;61.10;98962.00;103370;1280;97995;-76
2023/05/23 01:10:29;;;;;;;21.20;9.60;;;;;;;9.38;61.10;98961.66;103402;1280;107684;-76
2023/05/23 01:13:16;;;;;;;20.40;9.70;;;;;;;9.38;61.15;98959.87;103424;1286;98009;-76
2023/05/23 01:15:46;;;;;;;19.00;8.40;;;;;;;9.36;61.11;98958.46;103444;1277;99212;-76
2023/05/23 01:18:20;;;;;;;20.80;9.70;;;;;;;9.34;61.17;98954.87;103499;1276;111278;-77
2023/05/23 01:20:56;;;;;;;21.80;8.80;;;;;;;9.36;61.33;98954.71;103448;1279;98090;-76
2023/05/23 01:23:41;;;;;;;18.80;8.80;;;;;;;9.32;61.44;98947.55;103425;1279;107655;-77
2023/05/23 01:26:33;;;;;;;18.50;8.70;;;;;;;9.26;61.33;98950.46;103428;1280;98108;-76
2023/05/23 01:29:09;;;;;;;18.30;8.20;;;;;;;9.18;61.50;98951.00;103384;1279;99350;-76
2023/05/23 01:31:44;;;;;;;19.90;9.60;;;;;;;9.15;61.54;98952.98;103437;1277;111349;-77
2023/05/23 01:34:13;;;;;;;20.30;8.90;;;;;;;9.13;61.49;98950.45;103524;1283;97975;-77
2023/05/23 01:36:42;;;;;;;21.30;8.60;;;;;;;9.15;61.68;98947.15;103476;1279;106866;-77
2023/05/23 01:39:11;;;;;;;19.30;9.20;;;;;;;9.15;61.48;98948.40;103484;1276;99199;-77
2023/05/23 01:41:39;;;;;;;20.70;9.30;;;;;;;9.13;61.53;98944.47;103362;1275;97908;-77
2023/05/23 01:44:08;;;;;;;21.30;8.80;;;;;;;9.12;61.56;98942.05;103479;1279;111388;-77
2023/05/23 01:46:38;;;;;;;20.10;9.20;;;;;;;9.12;61.58;98944.38;103376;1287;97892;-77
2023/05/23 01:49:10;;;;;;;20.40;8.70;;;;;;;9.09;61.64;98943.46;103486;1276;107751;-77
2023/05/23 01:51:38;;;;;;;18.40;8.70;;;;;;;9.04;61.63;98941.29;103441;1276;98001;-77
2023/05/23 01:54:06;;;;;;;20.20;8.90;;;;;;;8.98;61.62;98936.98;103458;1280;98113;-77
2023/05/23 01:56:35;;;;;;;19.10;8.30;;;;;;;8.92;61.79;98936.81;103447;1279;111184;-77
2023/05/23 01:59:03;;;;;;;21.70;9.00;;;;;;;8.90;61.78;98940.38;103367;1280;158654;-77
2023/05/23 02:01:32;;;;;;;18.60;8.50;;;;;;;8.88;61.85;98937.65;103500;1274;107556;-76
2023/05/23 02:04:00;;;;;;;20.40;9.70;;;;;;;8.84;61.86;98936.15;103504;1277;97964;-77
2023/05/23 02:06:28;;;;;;;19.20;8.60;;;;;;;8.85;61.93;98931.52;103482;1277;97979;-77
2023/05/23 02:08:55;;;;;;;19.70;9.90;;;;;;;8.83;61.86;98927.52;103613;1279;111306;-77
2023/05/23 02:11:24;;;;;;;19.40;9.10;;;;;;;8.87;62.06;98929.38;103607;1276;98139;-78
2023/05/23 02:13:52;;;;;;;19.80;8.40;;;;;;;8.85;62.02;98928.86;103551;1285;107714;-78
2023/05/23 02:16:20;;;;;;;19.40;8.60;;;;;;;8.77;61.92;98925.62;103400;1279;98083;-77
2023/05/23 02:18:51;;;;;;;18.60;9.00;;;;;;;8.73;61.99;98926.94;103531;1279;98068;-78
2023/05/23 02:21:19;;;;;;;18.10;8.30;;;;;;;8.69;62.08;98925.46;103575;1289;111318;-78
2023/05/23 02:23:47;;;;;;;19.60;9.00;;;;;;;8.67;62.24;98921.87;103435;1277;98043;-76
2023/05/23 02:26:16;;;;;;;21.50;9.10;;;;;;;8.64;62.26;98915.73;103477;1279;107551;-77
2023/05/23 02:28:44;;;;;;;20.50;9.30;;;;;;;8.61;62.41;98913.80;103606;1276;98296;-78
2023/05/23 02:31:12;;;;;;;20.50;9.50;;;;;;;8.58;62.35;98914.89;103445;1282;97956;-78
2023/05/23 02:33:40;;;;;;;21.40;10.10;;;;;;;8.60;62.26;98911.05;103516;1280;111426;-77
2023/05/23 02:36:07;;;;;;;20.30;9.20;;;;;;;8.61;62.43;98909.20;103535;1279;97968;-78
2023/05/23 02:38:36;;;;;;;19.30;8.80;;;;;;;8.64;62.51;98906.54;103535;1276;107757;-78
2023/05/23 02:41:04;;;;;;;19.40;9.20;;;;;;;8.63;62.39;98908.70;103500;1280;98670;-77
2023/05/23 02:43:32;;;;;;;18.70;9.00;;;;;;;8.62;62.46;98910.55;103590;1281;97972;-77
2023/05/23 02:45:59;;;;;;;21.30;9.10;;;;;;;8.64;62.54;98911.11;103627;1276;110271;-77
2023/05/23 02:48:27;;;;;;;19.00;8.50;;;;;;;8.64;62.56;98911.49;103540;1276;98110;-78
2023/05/23 02:50:55;;;;;;;22.80;9.50;;;;;;;8.59;62.49;98909.86;103423;1279;106616;-76
2023/05/23 02:53:23;;;;;;;19.30;9.10;;;;;;;8.60;62.66;98903.77;103413;1277;99345;-76
2023/05/23 02:55:52;;;;;;;18.00;8.40;;;;;;;8.63;62.76;98903.41;103362;1276;98884;-76
2023/05/23 02:58:19;;;;;;;20.60;8.90;;;;;;;8.61;62.56;98901.75;103442;1277;111538;-77
2023/05/23 03:00:47;;;;;;;20.90;8.80;;;;;;;8.58;62.75;98900.56;103459;1293;97998;-76
2023/05/23 03:03:16;;;;;;;18.50;8.70;;;;;;;8.61;62.81;98903.87;103492;1279;107530;-77
2023/05/23 03:05:44;;;;;;;20.90;8.70;;;;;;;8.68;62.91;98902.79;103385;1276;98100;-76
2023/05/23 03:08:12;;;;;;;17.10;8.40;;;;;;;8.72;62.86;98908.00;103413;1279;98829;-76
2023/05/23 03:10:40;;;;;;;17.40;8.10;;;;;;;8.76;62.98;98907.99;103369;1290;110078;-76
2023/05/23 03:13:08;;;;;;;17.50;8.00;;;;;;;8.84;62.94;98907.88;103440;1279;98219;-76
2023/05/23 03:15:36;;;;;;;16.90;8.50;;;;;;;8.88;62.97;98905.96;103379;1279;107409;-76
2023/05/23 03:18:03;;;;;;;19.40;8.50;;;;;;;8.93;62.98;98908.27;103454;1280;98004;-76
2023/05/23 03:20:31;;;;;;;16.50;8.10;;;;;;;9.00;63.03;98899.35;103447;1279;99329;-76
2023/05/23 03:22:59;;;;;;;17.40;8.70;;;;;;;9.06;63.15;98897.87;103441;1281;111461;-77
2023/05/23 03:25:27;;;;;;;18.80;8.90;;;;;;;9.08;63.02;98897.34;103573;1280;98004;-78
2023/05/23 03:27:55;;;;;;;18.10;8.70;;;;;;;9.14;63.06;98898.73;104239;1276;107810;-76
2023/05/23 03:30:23;;;;;;;18.70;8.20;;;;;;;9.22;63.23;98895.35;104228;1276;98324;-77
2023/05/23 03:32:52;;;;;;;18.30;8.40;;;;;;;9.28;63.16;98896.02;104390;1279;98004;-76
2023/05/23 03:35:20;;;;;;;18.00;8.40;;;;;;;9.33;63.28;98895.64;104499;1274;111169;-76
2023/05/23 03:37:48;;;;;;;17.80;7.90;;;;;;;9.35;63.34;98892.99;104553;1276;98786;-77
2023/05/23 03:40:16;;;;;;;19.20;9.00;;;;;;;9.39;63.27;98898.23;104171;1280;107522;-77
2023/05/23 03:42:43;;;;;;;17.80;8.70;;;;;;;9.44;63.46;98896.13;104198;1276;98071;-76
2023/05/23 03:45:11;;;;;;;22.40;9.90;;;;;;;9.49;63.29;98892.38;104294;1274;99244;-76
2023/05/23 03:47:39;;;;;;;21.20;8.90;;;;;;;9.53;63.47;98887.19;104393;1276;111023;-77
2023/05/23 03:50:07;;;;;;;20.20;9.60;;;;;;;9.57;63.46;98889.55;104264;1276;99311;-77
2023/05/23 03:52:35;;;;;;;19.60;9.70;;;;;;;9.60;63.59;98887.16;103871;1276;107276;-77
2023/05/23 03:55:04;;;;;;;18.10;8.90;;;;;;;9.65;63.69;98885.59;103664;1277;98588;-77
2023/05/23 03:57:31;;;;;;;20.70;9.60;;;;;;;9.69;63.72;98880.53;104129;1279;98007;-77
2023/05/23 03:59:59;;;;;;;18.90;9.70;;;;;;;9.74;63.80;98878.08;103499;1279;111276;-77
2023/05/23 04:02:28;;;;;;;19.70;9.20;;;;;;;9.80;63.83;98879.58;103602;1277;97981;-77
2023/05/23 04:04:56;;;;;;;21.10;11.10;;;;;;;9.88;63.94;98881.15;103416;1279;107756;-76
2023/05/23 04:07:25;;;;;;;24.10;10.90;;;;;;;9.94;63.82;98883.70;103604;1277;97925;-77
2023/05/23 04:09:53;;;;;;;20.30;10.10;;;;;;;10.03;63.94;98883.09;103473;1279;98039;-77
2023/05/23 04:12:40;;;;;;;23.10;10.70;;;;;;;10.11;64.09;98881.02;103371;1286;112455;-76
2023/05/23 04:15:09;;;;;;;21.80;10.70;;;;;;;10.21;64.18;98877.70;103577;1280;98029;-76
2023/05/23 04:17:37;;;;;;;20.00;9.90;;;;;;;10.30;64.19;98878.92;103413;1279;107596;-76
2023/05/23 04:20:08;;;;;;;22.00;9.80;;;;;;;10.41;64.20;98868.61;103579;1279;98071;-76
2023/05/23 04:22:36;;;;;;;20.60;10.50;;;;;;;10.52;64.10;98870.07;103638;1280;97988;-78
2023/05/23 04:25:05;;;;;;;21.60;10.70;;;;;;;10.64;64.10;98866.88;103634;1277;110238;-77
2023/05/23 04:27:33;;;;;;;20.00;10.10;;;;;;;10.76;64.18;98866.16;103638;1279;98242;-79
2023/05/23 04:30:01;;;;;;;20.20;10.00;;;;;;;10.90;64.14;98863.52;103421;1279;107783;-80
2023/05/23 04:32:29;;;;;;;22.20;10.40;;;;;;;11.03;64.33;98860.39;103490;1279;98002;-78
2023/05/23 04:34:57;;;;;;;21.90;9.60;;;;;;;11.15;64.42;98859.95;103478;1289;97955;-78
2023/05/23 04:37:25;;;;;;;22.50;9.70;;;;;;;11.29;64.36;98859.04;103467;1279;111444;-78
2023/05/23 04:39:53;;;;;;;22.90;10.30;;;;;;;11.43;64.55;98856.53;103602;1279;97989;-77
2023/05/23 04:42:23;;;;;;;21.50;9.40;;;;;;;11.56;64.56;98853.35;104663;1276;107486;-78
2023/05/23 04:44:55;;;;;;;19.30;9.60;;;;;;;11.92;65.24;98850.84;104621;1277;98407;-78
2023/05/23 04:47:27;;;;;;;18.10;8.60;;;;;;;12.56;65.98;98852.67;104474;1279;97893;-81
2023/05/23 04:49:56;;;;;;;25.20;10.30;;;;;;;13.18;66.24;98849.39;103831;1280;111327;-78
2023/05/23 04:52:26;;;;;;;23.90;9.70;;;;;;;13.74;66.35;98843.10;105123;1276;97978;-78
2023/05/23 04:54:54;;;;;;;24.20;9.40;;;;;;;14.21;66.32;98843.71;106557;1276;107806;-76
2023/05/23 04:57:23;;;;;;;18.40;8.90;;;;;;;14.66;66.45;98834.92;106445;1276;95727;-77
2023/05/23 04:59:51;;;;;;;19.10;8.20;;;;;;;15.08;66.18;98826.78;104384;1276;98003;-79
2023/05/23 05:02:19;;;;;;;19.50;8.40;;;;;;;15.39;66.14;98825.30;104279;1276;111300;-76
2023/05/23 05:04:47;;;;;;;20.50;8.40;;;;;;;15.55;65.33;98822.51;105438;1276;96252;-78
2023/05/23 05:07:15;;;;;;;21.10;7.90;;;;;;;15.38;64.36;98823.24;103773;1277;107690;-78
2023/05/23 05:09:44;;;;;;;19.00;8.40;;;;;;;15.11;63.97;98818.52;103707;1276;97987;-78
2023/05/23 05:12:13;;;;;;;18.70;8.20;;;;;;;14.89;63.82;98819.66;103520;1276;98469;-78
2023/05/23 05:14:40;;;;;;;22.00;8.90;;;;;;;14.72;63.79;98817.10;103701;1276;110992;-79
2023/05/23 05:17:08;;;;;;;19.00;8.10;;;;;;;14.59;63.77;98817.61;104968;1276;99225;-77
2023/05/23 05:19:36;;;;;;;18.10;8.10;;;;;;;14.47;63.68;98817.60;106922;1275;107689;-77
2023/05/23 05:22:04;;;;;;;18.90;8.20;;;;;;;14.38;63.61;98816.83;106431;1276;98010;-78
2023/05/23 05:24:32;;;;;;;17.40;7.30;;;;;;;14.30;63.60;98818.52;105311;1276;98009;-78
2023/05/23 05:27:00;;;;;;;19.00;7.80;;;;;;;14.24;63.55;98819.39;103632;1280;111321;-79
2023/05/23 05:29:28;;;;;;;17.40;7.80;;;;;;;14.20;63.63;98820.64;103759;1277;97976;-79
2023/05/23 05:31:56;;;;;;;19.20;7.80;;;;;;;14.15;63.67;98820.19;103571;1277;107687;-78
2023/05/23 05:34:23;;;;;;;18.50;7.50;;;;;;;14.14;63.68;98819.19;104251;1276;98075;-78
2023/05/23 05:36:54;;;;;;;20.40;7.80;;;;;;;14.13;63.74;98814.78;104722;1275;97901;-78
2023/05/23 05:39:25;;;;;;;19.20;7.90;;;;;;;14.15;63.73;98820.39;104084;1275;111387;-81
2023/05/23 05:41:53;;;;;;;18.70;7.10;;;;;;;14.14;63.70;98814.89;106973;1276;95868;-81
2023/05/23 05:44:21;;;;;;;19.10;6.90;;;;;;;14.16;63.73;98816.23;106926;1276;107482;-78
2023/05/23 05:46:49;;;;;;;25.30;9.00;;;;;;;14.16;63.61;98821.40;105286;1274;97994;-81
2023/05/23 05:49:17;;;;;;;19.00;8.00;;;;;;;14.14;63.63;98821.14;107026;1274;95665;-78
2023/05/23 05:51:44;;;;;;;19.80;8.30;;;;;;;14.15;63.70;98822.83;105156;1276;110976;-80
2023/05/23 05:54:12;;;;;;;22.80;9.00;;;;;;;14.17;63.73;98821.09;105222;1279;98613;-80
2023/05/23 05:56:41;;;;;;;19.80;7.40;;;;;;;14.20;63.59;98820.33;106441;1276;107326;-78
2023/05/23 05:59:09;;;;;;;18.60;7.80;;;;;;;14.22;63.65;98818.73;106412;1277;96452;-79
2023/05/23 06:01:37;;;;;;;23.80;8.50;;;;;;;14.24;63.71;98825.05;106103;1276;97978;-80
2023/05/23 06:04:04;;;;;;;21.00;8.20;;;;;;;14.28;63.72;98819.02;103886;1280;111018;-81
2023/05/23 06:06:33;;;;;;;21.40;8.70;;;;;;;14.30;63.64;98818.99;104013;1279;97921;-79
2023/05/23 06:09:00;;;;;;;20.60;8.50;;;;;;;14.33;63.70;98819.13;103495;1279;107568;-78
2023/05/23 06:11:29;;;;;;;18.10;7.60;;;;;;;14.35;63.74;98818.23;103524;1277;98078;-79
2023/05/23 06:13:57;;;;;;;20.60;9.20;;;;;;;14.38;63.85;98817.77;103664;1276;97972;-82
2023/05/23 06:16:25;;;;;;;18.40;7.60;;;;;;;14.42;63.85;98817.95;103564;1279;110986;-80
2023/05/23 06:18:53;;;;;;;17.80;7.70;;;;;;;14.47;63.80;98820.67;103430;1280;99326;-80
2023/05/23 06:21:21;;;;;;;18.70;8.60;;;;;;;14.51;63.87;98822.23;103361;1280;108112;-79
2023/05/23 06:23:49;;;;;;;19.30;8.00;;;;;;;14.53;63.76;98823.00;103348;1292;99305;-79
2023/05/23 06:26:18;;;;;;;26.10;8.90;;;;;;;14.56;63.89;98821.81;103463;1276;97993;-80
2023/05/23 06:28:45;;;;;;;24.90;7.90;;;;;;;14.59;63.88;98819.70;103337;1279;111029;-79
2023/05/23 06:31:13;;;;;;;22.10;8.00;;;;;;;14.65;63.93;98824.20;103494;1279;98059;-80
2023/05/23 06:33:41;;;;;;;20.20;8.10;;;;;;;14.69;63.83;98819.67;103482;1280;107813;-79
2023/05/23 06:36:09;;;;;;;21.70;8.40;;;;;;;14.73;63.90;98816.34;103357;1286;99330;-80
2023/05/23 06:38:38;;;;;;;19.60;8.40;;;;;;;14.77;63.96;98815.63;103377;1276;98100;-79
2023/05/23 06:41:06;;;;;;;18.60;8.50;;;;;;;14.82;63.85;98810.52;103432;1276;111363;-79
2023/05/23 06:43:34;;;;;;;20.40;8.30;;;;;;;14.86;63.95;98815.33;103508;1279;97946;-79
2023/05/23 06:46:02;;;;;;;17.90;8.10;;;;;;;14.89;64.05;98810.89;103480;1279;107629;-79
2023/05/23 06:48:30;;;;;;;21.30;8.60;;;;;;;14.96;63.98;98813.77;103482;1279;98862;-79
2023/05/23 06:50:57;;;;;;;18.80;8.30;;;;;;;15.01;63.94;98811.94;103449;1279;98091;-79
2023/05/23 06:53:26;;;;;;;19.00;7.70;;;;;;;15.06;64.04;98812.83;103454;1277;111323;-79
2023/05/23 06:55:54;;;;;;;19.30;8.70;;;;;;;15.12;64.05;98811.77;103403;1277;98001;-78
2023/05/23 06:58:23;;;;;;;22.50;8.80;;;;;;;15.18;63.98;98811.21;103436;1279;107741;-79
2023/05/23 07:00:51;;;;;;;19.10;8.60;;;;;;;15.23;64.08;98806.79;103379;1279;98102;-80
2023/05/23 07:03:19;;;;;;;22.80;8.40;;;;;;;15.32;64.09;98799.83;103585;1279;97982;-77
2023/05/23 07:05:47;;;;;;;18.30;8.30;;;;;;;15.40;64.05;98799.29;104343;1274;112621;-77
2023/05/23 07:08:15;;;;;;;18.40;7.80;;;;;;;15.48;64.07;98800.95;104316;1276;98939;-79
2023/05/23 07:10:44;;;;;;;18.10;7.60;;;;;;;15.57;64.06;98804.10;104112;1276;107714;-80
2023/05/23 07:13:12;;;;;;;18.20;7.60;;;;;;;15.64;64.14;98799.98;104229;1279;98897;-77
2023/05/23 07:15:39;;;;;;;19.20;8.30;;;;;;;15.74;64.15;98796.38;104258;1276;97960;-80
2023/05/23 07:18:07;;;;;;;22.00;8.70;;;;;;;15.82;64.14;98796.45;104224;1274;111420;-77
2023/05/23 07:20:35;;;;;;;21.40;8.40;;;;;;;15.88;64.07;98797.85;104711;1276;99176;-79
2023/05/23 07:23:03;;;;;;;17.20;8.00;;;;;;;15.93;64.16;98799.11;103792;1280;107711;-80
2023/05/23 07:25:31;;;;;;;18.90;8.20;;;;;;;16.00;64.01;98797.96;104162;1279;97972;-79
2023/05/23 07:27:59;;;;;;;21.80;8.30;;;;;;;16.05;64.06;98793.80;103690;1279;98071;-79
2023/05/23 07:30:27;;;;;;;19.90;8.40;;;;;;;16.10;63.96;98791.96;103470;1279;110971;-79
2023/05/23 07:32:57;;;;;;;25.60;9.30;;;;;;;16.15;64.10;98794.79;103776;1276;97963;-79
2023/05/23 07:35:25;;;;;;;21.30;8.00;;;;;;;16.24;64.13;98795.14;103479;1277;106262;-79
2023/05/23 07:37:54;;;;;;;19.40;7.70;;;;;;;16.31;63.95;98791.63;103447;1277;97987;-80
2023/05/23 07:40:23;;;;;;;19.10;7.60;;;;;;;16.39;64.08;98788.52;103547;1280;97959;-79
2023/05/23 07:42:52;;;;;;;23.50;8.30;;;;;;;16.44;64.08;98791.16;103464;1279;112166;-79
2023/05/23 07:45:19;;;;;;;22.10;7.40;;;;;;;16.54;64.04;98786.94;103387;1279;97978;-79
2023/05/23 07:47:48;;;;;;;20.00;8.20;;;;;;;16.61;64.00;98783.73;103304;1279;107536;-79
2023/05/23 07:50:16;;;;;;;16.30;7.20;;;;;;;16.69;64.10;98780.42;103544;1276;98037;-79
2023/05/23 07:52:44;;;;;;;16.20;6.60;;;;;;;16.77;64.13;98780.46;103377;1279;97969;-80
2023/05/23 07:55:12;;;;;;;21.60;8.20;;;;;;;16.90;64.09;98781.73;103472;1279;110376;-79
2023/05/23 07:57:41;;;;;;;16.60;7.50;;;;;;;16.98;63.94;98779.16;103615;1276;97966;-79
2023/05/23 08:00:10;;;;;;;15.10;6.60;;;;;;;17.03;64.18;98776.11;105444;1276;107696;-79
2023/05/23 08:02:38;;;;;;;18.30;7.40;;;;;;;17.16;64.08;98772.20;103570;1280;99191;-80
2023/05/23 08:05:07;;;;;;;18.80;7.00;;;;;;;17.28;64.14;98772.73;103686;1276;99225;-80
2023/05/23 08:07:35;;;;;;;19.60;8.20;;;;;;;17.37;63.91;98767.64;103553;1276;111333;-78
2023/05/23 08:10:03;;;;;;;17.90;7.50;;;;;;;17.44;63.89;98766.46;103500;1277;97997;-80
2023/05/23 08:12:32;;;;;;;17.90;6.90;;;;;;;17.53;64.04;98764.43;103522;1279;107801;-78
2023/05/23 08:15:00;;;;;;;18.10;7.70;;;;;;;17.61;63.71;98766.23;103848;1279;97973;-79
2023/05/23 08:17:28;;;;;;;17.20;6.30;;;;;;;17.65;63.73;98764.23;103746;1276;98001;-78
2023/05/23 08:19:56;;;;;;;18.70;6.50;;;;;;;17.71;63.70;98760.21;103807;1276;110804;-78
2023/05/23 08:22:23;;;;;;;17.50;6.40;;;;;;;17.80;63.75;98762.84;104032;1279;97876;-78
2023/05/23 08:24:52;;;;;;;17.90;6.40;;;;;;;17.88;63.40;98759.82;103725;1276;107710;-80
2023/05/23 08:27:20;;;;;;;16.70;6.60;;;;;;;17.94;63.52;98757.04;103763;1280;99320;-81
2023/05/23 08:29:48;;;;;;;15.10;6.60;;;;;;;18.00;63.39;98763.48;103580;1276;97896;-87
2023/05/23 08:32:15;;;;;;;18.00;6.80;;;;;;;18.10;63.42;98759.20;103603;1279;111515;-84
2023/05/23 08:34:43;;;;;;;12.80;5.50;;;;;;;18.18;63.31;98757.52;103468;1276;99292;-86
2023/05/23 08:37:11;;;;;;;12.60;5.80;;;;;;;18.27;63.24;98754.01;103442;1280;107735;-82
2023/05/23 08:39:40;;;;;;;15.70;5.90;;;;;;;18.36;63.09;98751.27;103522;1280;99281;-79
2023/05/23 08:42:08;;;;;;;14.60;5.70;;;;;;;18.46;62.91;98751.20;103376;1282;98030;-79
2023/05/23 08:44:37;;;;;;;15.10;5.70;;;;;;;18.54;62.89;98748.36;103494;1279;111660;-79
2023/05/23 08:47:07;;;;;;;15.60;6.00;;;;;;;18.64;62.90;98749.42;104812;1277;97995;-79
2023/05/23 08:49:37;;;;;;;15.10;5.50;;;;;;;18.66;62.36;98750.30;104480;1277;107811;-78
2023/05/23 08:52:10;;;;;;;12.40;5.50;;;;;;;18.71;62.39;98748.10;103688;1277;97920;-81
2023/05/23 08:54:40;;;;;;;13.40;5.40;;;;;;;18.78;62.38;98744.60;106738;1274;95677;-77
2023/05/23 08:57:09;;;;;;;8.70;4.60;;;;;;;18.85;62.29;98745.63;103730;1278;111358;-80
2023/05/23 08:59:38;;;;;;;14.10;5.60;;;;;;;18.94;62.16;98743.73;105839;1276;97854;-77
2023/05/23 09:02:10;;;;;;;12.00;4.90;;;;;;;19.04;61.92;98745.70;106460;1275;107373;-80
2023/05/23 09:04:38;;;;;;;13.50;5.70;;;;;;;19.12;61.83;98742.67;103429;1279;97976;-79
2023/05/23 09:07:07;;;;;;;14.90;5.50;;;;;;;19.15;61.40;98740.46;103487;1279;98103;-80
2023/05/23 09:09:35;;;;;;;12.90;4.80;;;;;;;19.23;61.40;98738.47;103533;1277;111049;-79
2023/05/23 09:12:04;;;;;;;11.90;5.20;;;;;;;19.29;61.56;98736.23;103422;1279;98004;-79
2023/05/23 09:14:31;;;;;;;10.90;4.90;;;;;;;19.35;61.57;98738.08;103375;1276;107740;-78
2023/05/23 09:17:01;;;;;;;13.20;5.60;;;;;;;19.39;61.23;98735.82;103444;1279;97959;-81
2023/05/23 09:19:32;;;;;;;12.10;5.10;;;;;;;19.43;61.29;98735.54;103586;1279;99005;-79
2023/05/23 09:22:01;;;;;;;12.40;5.00;;;;;;;19.48;61.21;98736.56;103471;1279;111368;-79
2023/05/23 09:24:36;;;;;;;13.00;4.60;;;;;;;19.52;61.15;98728.29;103423;1277;98906;-80
2023/05/23 09:27:06;;;;;;;11.30;4.70;;;;;;;19.56;60.67;98731.48;103448;1279;107619;-81
2023/05/23 09:29:40;;;;;;;14.50;5.10;;;;;;;19.63;60.49;98733.80;103513;1280;98078;-80
2023/05/23 09:32:13;;;;;;;12.50;5.00;;;;;;;19.68;60.48;98733.21;103475;1279;97893;-79
2023/05/23 09:34:55;;;;;;;12.60;5.10;;;;;;;19.71;60.38;98731.36;103473;1279;111238;-79
2023/05/23 09:37:38;;;;;;;10.80;4.60;;;;;;;19.74;59.94;98729.08;103505;1279;99336;-78
2023/05/23 09:40:11;;;;;;;14.50;4.60;;;;;;;19.77;59.99;98727.21;103524;1277;107819;-80
2023/05/23 09:42:44;;;;;;;10.50;4.40;;;;;;;19.82;59.16;98727.92;103637;1278;98079;-80
2023/05/23 09:45:14;;;;;;;11.90;4.90;;;;;;;19.88;59.52;98726.59;103515;1279;98018;-79
2023/05/23 09:47:52;;;;;;;16.20;4.80;;;;;;;19.92;59.46;98726.52;103482;1280;111302;-79
2023/05/23 09:50:21;;;;;;;11.10;4.70;;;;;;;19.93;59.47;98723.17;103553;1279;98529;-78
2023/05/23 09:52:50;;;;;;;14.70;4.70;;;;;;;19.98;58.91;98723.84;103781;1279;107874;-79
2023/05/23 09:55:18;;;;;;;13.40;5.30;;;;;;;20.05;58.86;98718.64;103487;1279;98110;-79
2023/05/23 09:57:55;;;;;;;14.00;4.60;;;;;;;20.11;58.92;98718.58;103484;1278;97952;-79
2023/05/23 10:00:24;;;;;;;10.80;4.60;;;;;;;20.10;58.39;98712.13;103569;1279;111167;-79
2023/05/23 10:03:11;;;;;;;12.20;5.10;;;;;;;20.11;57.65;98711.65;103543;1277;98377;-79
2023/05/23 10:05:52;;;;;;;13.20;5.30;;;;;;;20.20;58.21;98708.09;103467;1280;107543;-80
2023/05/23 10:08:28;;;;;;;13.00;4.50;;;;;;;20.23;57.46;98712.09;103404;1279;98919;-80
2023/05/23 10:10:56;;;;;;;11.70;4.40;;;;;;;20.29;57.61;98707.81;103506;1277;97976;-79
2023/05/23 10:13:26;;;;;;;14.40;5.00;;;;;;;20.30;57.59;98704.05;103710;1279;111494;-81
2023/05/23 10:16:02;;;;;;;14.80;5.40;;;;;;;20.29;57.46;98701.22;103470;1279;98004;-79
2023/05/23 10:18:38;;;;;;;9.90;3.90;;;;;;;20.33;57.02;98699.00;105159;1276;107552;-78
2023/05/23 10:21:11;;;;;;;13.50;5.10;;;;;;;20.36;57.21;98703.82;104238;1276;98081;-80
2023/05/23 10:23:39;;;;;;;11.70;4.60;;;;;;;20.35;56.65;98700.48;103582;1278;97860;-80
2023/05/23 10:26:08;;;;;;;13.50;4.60;;;;;;;20.41;56.62;98704.13;103591;1281;111352;-79
2023/05/23 10:28:36;;;;;;;9.30;4.70;;;;;;;20.44;56.45;98695.02;103488;1279;98090;-80
2023/05/23 10:31:04;;;;;;;8.80;4.50;;;;;;;20.49;56.50;98701.52;103406;1277;106820;-79
2023/05/23 10:33:40;;;;;;;13.30;4.80;;;;;;;20.50;56.13;98700.36;103481;1276;97981;-80
2023/05/23 10:36:19;;;;;;;8.20;4.20;;;;;;;20.51;56.14;98700.29;105494;1278;97867;-79
2023/05/23 10:39:00;;;;;;;8.10;4.60;;;;;;;20.51;56.13;98698.10;104828;1275;111336;-78
2023/05/23 10:41:35;;;;;;;12.70;4.80;;;;;;;20.52;56.08;98695.12;103674;1280;97966;-78
2023/05/23 10:44:11;;;;;;;10.20;4.40;;;;;;;20.58;55.60;98694.61;103644;1279;108092;-79
2023/05/23 10:47:00;;;;;;;10.70;4.20;;;;;;;20.64;55.82;98696.50;103615;1279;97982;-77
2023/05/23 10:49:45;;;;;;;16.10;4.70;;;;;;;20.67;55.22;98692.17;104469;1279;97881;-78
2023/05/23 10:52:16;;;;;;;11.60;4.70;;;;;;;20.75;55.53;98690.25;103531;1279;111482;-79
2023/05/23 10:54:50;;;;;;;9.80;4.60;;;;;;;20.79;55.12;98694.73;103685;1277;98003;-77
2023/05/23 10:57:20;;;;;;;9.90;4.50;;;;;;;20.85;55.27;98691.06;103636;1279;107749;-80
2023/05/23 10:59:50;;;;;;;12.40;5.00;;;;;;;20.85;55.08;98685.37;103563;1276;98316;-79
2023/05/23 11:02:24;;;;;;;14.60;4.90;;;;;;;20.86;54.48;98680.64;103612;1279;97886;-79
2023/05/23 11:05:14;;;;;;;10.50;4.30;;;;;;;20.93;54.45;98680.45;103477;1279;111357;-78
2023/05/23 11:07:42;;;;;;;9.70;4.70;;;;;;;20.96;54.29;98673.79;103404;1277;99305;-79
2023/05/23 11:10:15;;;;;;;14.90;4.40;;;;;;;21.00;54.62;98671.71;103434;1279;107661;-77
2023/05/23 11:12:43;;;;;;;;;;;;;;;21.00;54.43;98665.72;103458;1276;98021;-79
2023/05/23 11:15:18;;;;;;;11.30;4.60;;;;;;;21.02;54.39;98663.40;103537;1279;97957;-78
2023/05/23 11:17:53;;;;;;;14.50;4.70;;;;;;;21.06;54.07;98663.17;103512;1277;111411;-79
2023/05/23 11:20:30;;;;;;;11.40;4.70;;;;;;;21.11;54.26;98659.40;103424;1279;98071;-79
2023/05/23 11:23:00;;;;;;;9.30;4.20;;;;;;;21.15;53.99;98658.73;103409;1279;106946;-79
2023/05/23 11:25:39;;;;;;;14.10;5.60;;;;;;;21.12;53.59;98655.22;103486;1280;97965;-79
2023/05/23 11:28:12;;;;;;;11.50;4.90;;;;;;;21.12;53.55;98647.98;103496;1280;99237;-78